createdAt,value
2023-03-28T00:01:05.674Z,4.4
2023-03-28T00:06:10.818Z,4.7
2023-03-28T00:11:16.916Z,4.7
2023-03-28T00:16:23.045Z,3.8
2023-03-28T00:21:29.181Z,5.1
2023-03-28T00:26:35.311Z,4.4
2023-03-28T00:31:41.403Z,4.7
2023-03-28T00:36:47.494Z,4.1
2023-03-28T00:41:53.694Z,4.4
2023-03-28T00:46:59.747Z,3.8
2023-03-28T00:52:05.850Z,4.4
2023-03-28T00:57:11.997Z,4.4
2023-03-28T01:02:18.090Z,4.4
2023-03-28T01:07:24.193Z,4.1
2023-03-28T01:12:29.326Z,4.1
2023-03-28T01:17:35.449Z,4.4
2023-03-28T01:22:41.594Z,4.7
2023-03-28T01:27:47.701Z,4.1
2023-03-28T01:32:53.795Z,3.8
2023-03-28T01:37:59.914Z,4.1
2023-03-28T01:43:06.105Z,4.1
2023-03-28T01:48:12.124Z,4.1
2023-03-28T01:53:18.251Z,4.1
2023-03-28T01:58:24.385Z,4.1
2023-03-28T02:03:30.489Z,4.1
2023-03-28T02:08:36.607Z,3.8
2023-03-28T02:13:42.703Z,3.8
2023-03-28T02:18:47.849Z,3.8
2023-03-28T02:23:53.974Z,4.1
2023-03-28T02:29:00.089Z,4.1
2023-03-28T02:34:06.198Z,4.7
2023-03-28T02:39:12.327Z,3.8
2023-03-28T02:44:18.448Z,4.1
2023-03-28T02:49:24.544Z,4.4
2023-03-28T02:54:30.673Z,4.1
2023-03-28T02:59:36.782Z,3.8
2023-03-28T03:04:42.917Z,4.1
2023-03-28T03:09:49.022Z,4.1
2023-03-28T03:14:55.129Z,4.4
2023-03-28T03:20:01.260Z,4.4
2023-03-28T03:25:06.382Z,3.8
2023-03-28T03:30:12.494Z,3.8
2023-03-28T03:35:18.624Z,3.8
2023-03-28T03:40:24.759Z,3.8
2023-03-28T03:45:30.860Z,4.4
2023-03-28T03:50:36.994Z,4.1
2023-03-28T03:55:43.094Z,4.1
2023-03-28T04:00:49.212Z,3.4
2023-03-28T04:05:55.320Z,4.1
2023-03-28T04:11:01.518Z,4.1
2023-03-28T04:16:07.657Z,3.1
2023-03-28T04:21:13.676Z,4.1
2023-03-28T04:26:19.868Z,3.8
2023-03-28T04:31:24.920Z,4.1
2023-03-28T04:36:31.054Z,3.8
2023-03-28T04:41:37.153Z,3.4
2023-03-28T04:46:43.274Z,3.8
2023-03-28T04:51:49.394Z,3.8
2023-03-28T04:56:55.524Z,3.8
2023-03-28T05:02:01.664Z,3.4
2023-03-28T05:07:07.734Z,3.4
2023-03-28T05:12:13.884Z,3.4
2023-03-28T05:17:19.989Z,3.4
2023-03-28T05:22:26.094Z,4.1
2023-03-28T05:27:32.206Z,3.4
2023-03-28T05:32:38.326Z,3.4
2023-03-28T05:37:43.436Z,3.4
2023-03-28T05:42:49.592Z,3.8
2023-03-28T05:47:55.682Z,3.4
2023-03-28T05:58:07.958Z,3.4
2023-03-28T06:03:14.044Z,3.4
2023-03-28T06:08:20.148Z,3.1
2023-03-28T06:13:26.324Z,3.1
2023-03-28T06:18:32.371Z,3.8
2023-03-28T06:23:38.497Z,3.4
2023-03-28T06:28:44.610Z,3.8
2023-03-28T06:33:50.745Z,3.4
2023-03-28T06:38:56.857Z,2.8
2023-03-28T06:44:06.501Z,3.4
2023-03-28T06:49:08.095Z,3.4
2023-03-28T06:54:14.220Z,3.1
2023-03-28T06:59:20.332Z,3.4
2023-03-28T07:04:26.473Z,3.1
2023-03-28T07:09:32.557Z,3.4
2023-03-28T07:14:38.681Z,3.4
2023-03-28T07:19:44.781Z,3.1
2023-03-28T07:24:50.919Z,3.1
2023-03-28T07:29:57.030Z,3.1
2023-03-28T07:35:03.188Z,3.4
2023-03-28T07:40:09.429Z,3.4
2023-03-28T07:45:15.381Z,2.8
2023-03-28T07:50:20.533Z,2.8
2023-03-28T07:55:26.636Z,4.1
2023-03-28T08:00:32.753Z,3.8
2023-03-28T08:05:38.877Z,3.4
2023-03-28T08:10:44.988Z,3.8
2023-03-28T08:15:51.101Z,3.4
2023-03-28T08:20:57.224Z,4.1
2023-03-28T08:26:03.360Z,3.8
2023-03-28T08:31:09.452Z,4.1
2023-03-28T08:36:15.578Z,3.8
2023-03-28T08:41:21.706Z,4.1
2023-03-28T08:46:27.816Z,5.1
2023-03-28T08:51:33.944Z,4.1
2023-03-28T08:56:39.064Z,4.1
2023-03-28T09:01:45.237Z,4.1
2023-03-28T09:06:51.344Z,4.7
2023-03-28T09:11:57.463Z,4.7
2023-03-28T09:17:03.548Z,5.1
2023-03-28T09:22:09.666Z,5.1
2023-03-28T09:27:15.797Z,4.4
2023-03-28T09:32:21.899Z,5.1
2023-03-28T09:37:28.052Z,5.1
2023-03-28T09:42:34.130Z,5.4
2023-03-28T09:47:40.240Z,5.7
2023-03-28T09:52:46.466Z,5.7
2023-03-28T09:57:52.476Z,5.7
2023-03-28T10:02:57.632Z,5.7
2023-03-28T10:08:03.723Z,6
2023-03-28T10:13:09.884Z,5.7
2023-03-28T10:18:15.944Z,6
2023-03-28T10:23:22.068Z,6.3
2023-03-28T10:28:28.163Z,6
2023-03-28T10:33:34.407Z,6
2023-03-28T10:38:40.431Z,5.7
2023-03-28T10:43:46.545Z,6.3
2023-03-28T10:48:52.620Z,6
2023-03-28T10:53:58.740Z,6.7
2023-03-28T10:59:04.828Z,6
2023-03-28T11:04:10.951Z,6.7
2023-03-28T11:09:16.060Z,6.7
2023-03-28T11:14:22.345Z,6.7
2023-03-28T11:19:28.287Z,6
2023-03-28T11:24:34.438Z,7
2023-03-28T11:29:40.518Z,7.6
2023-03-28T11:34:46.638Z,7.3
2023-03-28T11:39:51.761Z,7.3
2023-03-28T11:44:57.923Z,7
2023-03-28T11:50:03.997Z,8
2023-03-28T11:55:10.102Z,7.3
2023-03-28T12:00:16.207Z,7.6
2023-03-28T12:05:22.320Z,8
2023-03-28T12:10:28.445Z,7.6
2023-03-28T12:15:34.556Z,8.3
2023-03-28T12:20:40.801Z,8
2023-03-28T12:25:46.768Z,8.3
2023-03-28T12:30:52.931Z,8.3
2023-03-28T12:35:59.047Z,7.6
2023-03-28T12:41:05.161Z,8.3
2023-03-28T12:46:10.260Z,8
2023-03-28T12:51:16.418Z,8.6
2023-03-28T12:56:22.503Z,8.3
2023-03-28T13:01:28.607Z,8.3
2023-03-28T13:06:34.705Z,8.9
2023-03-28T13:11:40.812Z,9.2
2023-03-28T13:16:46.935Z,8.6
2023-03-28T13:21:53.049Z,8.9
2023-03-28T13:26:59.135Z,8.6
2023-03-28T13:32:05.266Z,9.2
2023-03-28T13:37:11.486Z,9.2
2023-03-28T13:42:17.505Z,8.9
2023-03-28T13:47:23.589Z,9.2
2023-03-28T13:52:28.720Z,9.2
2023-03-28T13:57:34.846Z,9.6
2023-03-28T14:02:40.944Z,9.2
2023-03-28T14:07:47.056Z,9.2
2023-03-28T14:12:53.177Z,9.2
2023-03-28T14:17:59.315Z,9.6
2023-03-28T14:23:05.402Z,9.2
2023-03-28T14:28:11.503Z,9.6
2023-03-28T14:33:17.629Z,8.9
2023-03-28T14:38:23.723Z,9.6
2023-03-28T14:43:29.840Z,9.2
2023-03-28T14:48:35.963Z,9.6
2023-03-28T14:53:42.103Z,9.6
2023-03-28T14:58:47.163Z,9.6
2023-03-28T15:03:53.295Z,9.6
2023-03-28T15:08:59.393Z,9.6
2023-03-28T15:14:05.501Z,9.6
2023-03-28T15:19:11.621Z,9.6
2023-03-28T15:24:17.714Z,9.6
2023-03-28T15:29:23.846Z,9.6
2023-03-28T15:34:29.949Z,9.2
2023-03-28T15:39:36.056Z,9.2
2023-03-28T15:44:42.169Z,9.2
2023-03-28T15:49:48.271Z,9.6
2023-03-28T15:54:54.462Z,9.6
2023-03-28T16:00:00.525Z,9.2
2023-03-28T16:05:05.645Z,9.6
2023-03-28T16:10:11.751Z,9.6
2023-03-28T16:15:17.867Z,9.2
2023-03-28T16:20:23.966Z,9.6
2023-03-28T16:25:30.115Z,8.9
2023-03-28T16:30:36.223Z,9.2
2023-03-28T16:35:42.322Z,8.9
2023-03-28T16:40:48.465Z,8.9
2023-03-28T16:45:54.547Z,8.6
2023-03-28T16:51:00.645Z,8.9
2023-03-28T16:56:06.746Z,9.2
2023-03-28T17:01:12.862Z,8.6
2023-03-28T17:06:18.990Z,9.2
2023-03-28T17:11:24.129Z,8.9
2023-03-28T17:16:30.240Z,9.2
2023-03-28T17:21:36.349Z,8.9
2023-03-28T17:26:42.470Z,8.9
2023-03-28T17:31:48.588Z,8.3
2023-03-28T17:36:54.733Z,8.6
2023-03-28T17:42:00.904Z,8.6
2023-03-28T17:47:06.943Z,8.9
2023-03-28T17:52:13.085Z,8.9
2023-03-28T17:57:19.163Z,8.6
2023-03-28T18:02:25.287Z,8.3
2023-03-28T18:07:31.409Z,8.3
2023-03-28T18:12:37.592Z,8.6
2023-03-28T18:17:42.704Z,8.6
2023-03-28T18:22:48.788Z,8
2023-03-28T18:27:54.904Z,8.6
2023-03-28T18:33:01.032Z,7.3
2023-03-28T18:38:07.161Z,8
2023-03-28T18:43:13.271Z,8
2023-03-28T18:48:19.403Z,8
2023-03-28T18:53:25.500Z,8
2023-03-28T18:58:31.607Z,8
2023-03-28T19:03:37.730Z,7.6
2023-03-28T19:08:43.835Z,7.6
2023-03-28T19:13:49.959Z,7.3
2023-03-28T19:18:56.081Z,7.6
2023-03-28T19:24:01.244Z,7.3
2023-03-28T19:29:07.315Z,7.3
2023-03-28T19:34:13.440Z,7.6
2023-03-28T19:39:19.546Z,7.3
2023-03-28T19:44:25.660Z,7
2023-03-28T19:49:31.786Z,7
2023-03-28T19:54:37.894Z,7
2023-03-28T19:59:44.028Z,7
2023-03-28T20:04:50.142Z,6.7
2023-03-28T20:09:56.327Z,7.3
2023-03-28T20:15:02.361Z,7
2023-03-28T20:20:08.488Z,6.7
2023-03-28T20:25:14.602Z,7
2023-03-28T20:30:19.731Z,6.7
2023-03-28T20:35:25.840Z,6.3
2023-03-28T20:40:31.982Z,6.3
2023-03-28T20:45:38.081Z,7
2023-03-28T20:50:44.201Z,6.3
2023-03-28T20:55:50.319Z,6.3
2023-03-28T21:00:56.415Z,6.3
2023-03-28T21:06:02.537Z,6
2023-03-28T21:11:08.704Z,6.3
2023-03-28T21:16:14.771Z,6.3
2023-03-28T21:21:20.921Z,6
2023-03-28T21:26:27.052Z,6.3
2023-03-28T21:31:33.162Z,6
2023-03-28T21:36:38.312Z,6
2023-03-28T21:41:44.394Z,6.7
2023-03-28T21:46:50.519Z,5.7
2023-03-28T21:51:56.627Z,6
2023-03-28T21:57:02.758Z,6
2023-03-28T22:02:08.873Z,6
2023-03-28T22:07:14.999Z,6.3
2023-03-28T22:12:21.114Z,6
2023-03-28T22:17:27.233Z,6
2023-03-28T22:22:33.323Z,5.7
2023-03-28T22:27:39.459Z,6.3
2023-03-28T22:32:45.566Z,5.4
2023-03-28T22:37:51.679Z,5.7
2023-03-28T22:42:56.843Z,6
2023-03-28T22:48:02.933Z,5.7
2023-03-28T22:53:09.043Z,5.4
2023-03-28T22:58:15.170Z,4.7
2023-03-28T23:03:21.291Z,5.1
2023-03-28T23:08:27.392Z,5.4
2023-03-28T23:13:33.531Z,5.4
2023-03-28T23:18:39.632Z,5.7
2023-03-28T23:23:45.744Z,5.7
2023-03-28T23:28:51.872Z,5.4
2023-03-28T23:33:57.988Z,5.4
2023-03-28T23:39:04.088Z,5.4
2023-03-28T23:44:10.213Z,5.4
2023-03-28T23:49:15.328Z,5.4
2023-03-28T23:54:21.450Z,5.4
2023-03-28T23:59:27.568Z,5.4
